createdAt,value
2023-02-06T00:01:40.191Z,22.95
2023-02-06T00:04:08.121Z,21.42
2023-02-06T00:06:36.361Z,18.95
2023-02-06T00:09:06.381Z,23.05
2023-02-06T00:11:36.284Z,21.27
2023-02-06T00:14:04.761Z,22.42
2023-02-06T00:16:35.017Z,23.02
2023-02-06T00:19:03.245Z,18.83
2023-02-06T00:21:31.529Z,19.83
2023-02-06T00:24:02.163Z,21.08
2023-02-06T00:26:31.333Z,20.77
2023-02-06T00:29:01.165Z,17.38
2023-02-06T00:31:30.090Z,27.52
2023-02-06T00:33:58.092Z,26.02
2023-02-06T00:36:26.981Z,23.70
2023-02-06T00:38:55.385Z,21.88
2023-02-06T00:41:23.376Z,27.08
2023-02-06T00:43:52.467Z,28.70
2023-02-06T00:46:22.922Z,23.60
2023-02-06T00:48:50.935Z,24.95
2023-02-06T00:51:18.907Z,23.95
2023-02-06T00:53:50.138Z,26.48
2023-02-06T00:56:18.958Z,24.33
2023-02-06T00:58:48.340Z,20.73
2023-02-06T01:01:16.537Z,23.77
2023-02-06T01:03:46.225Z,22.75
2023-02-06T01:06:15.087Z,26.38
2023-02-06T01:08:43.560Z,28.48
2023-02-06T01:11:15.729Z,22.75
2023-02-06T01:13:44.111Z,20.58
2023-02-06T01:16:14.920Z,24.02
2023-02-06T01:18:43.725Z,28.83
2023-02-06T01:21:15.516Z,25.02
2023-02-06T01:23:45.036Z,20.98
2023-02-06T01:26:14.970Z,23.43
2023-02-06T01:31:12.899Z,25.98
2023-02-06T01:33:42.424Z,25.67
2023-02-06T01:36:10.591Z,24.40
2023-02-06T01:38:40.909Z,26.25
2023-02-06T01:41:09.753Z,23.42
2023-02-06T01:43:41.549Z,17.52
2023-02-06T01:46:10.123Z,31.85
2023-02-06T01:48:42.682Z,17.45
2023-02-06T01:51:15.057Z,22.52
2023-02-06T01:53:48.136Z,23.58
2023-02-06T01:56:19.522Z,25.20
2023-02-06T01:58:52.836Z,18.90
2023-02-06T02:01:22.396Z,20.63
2023-02-06T02:03:54.099Z,19.95
2023-02-06T02:06:24.758Z,17.50
2023-02-06T02:08:58.489Z,16.38
2023-02-06T02:11:31.749Z,17.98
2023-02-06T02:14:01.819Z,22.52
2023-02-06T02:16:41.555Z,18.38
2023-02-06T02:19:41.256Z,20.65
2023-02-06T02:22:42.424Z,13.77
2023-02-06T02:25:43.832Z,18.80
2023-02-06T02:28:31.790Z,13.65
2023-02-06T02:31:32.584Z,20.10
2023-02-06T02:34:38.085Z,18.83
2023-02-06T02:37:16.571Z,17.35
2023-02-06T02:39:51.027Z,26.02
2023-02-06T02:42:26.062Z,28.25
2023-02-06T02:44:58.206Z,23.17
2023-02-06T02:47:33.573Z,22.65
2023-02-06T02:50:04.288Z,16.05
2023-02-06T02:52:33.297Z,25.98
2023-02-06T02:55:01.742Z,20.83
2023-02-06T02:57:32.659Z,23.45
2023-02-06T03:00:02.289Z,25.52
2023-02-06T03:02:35.968Z,34.25
2023-02-06T03:05:10.753Z,29.73
2023-02-06T03:07:50.509Z,18.02
2023-02-06T03:10:29.407Z,22.92
2023-02-06T03:13:05.562Z,20.48
2023-02-06T03:15:41.372Z,23.25
2023-02-06T03:18:13.594Z,26.95
2023-02-06T03:20:46.574Z,21.58
2023-02-06T03:23:19.423Z,14.05
2023-02-06T03:25:52.464Z,22.52
2023-02-06T03:28:25.646Z,26.25
2023-02-06T03:30:57.244Z,13.63
2023-02-06T03:33:30.498Z,22.17
2023-02-06T03:35:59.890Z,16.15
2023-02-06T03:38:29.470Z,24.80
2023-02-06T03:40:59.058Z,30.20
2023-02-06T03:43:31.056Z,17.83
2023-02-06T03:46:04.069Z,16.38
2023-02-06T03:48:37.622Z,22.08
2023-02-06T03:51:13.393Z,23.08
2023-02-06T03:53:45.035Z,15.88
2023-02-06T03:56:20.443Z,21.83
2023-02-06T03:58:49.313Z,14.25
2023-02-06T04:01:18.061Z,15.90
2023-02-06T04:03:48.847Z,22.35
2023-02-06T04:06:19.921Z,21.25
2023-02-06T04:08:48.009Z,20.27
2023-02-06T04:11:17.096Z,15.80
2023-02-06T04:13:45.103Z,17.40
2023-02-06T04:16:13.523Z,17.35
2023-02-06T04:18:41.932Z,18.17
2023-02-06T04:21:10.053Z,17.55
2023-02-06T04:23:39.781Z,13.27
2023-02-06T04:28:35.543Z,23.05
2023-02-06T04:31:04.708Z,14.35
2023-02-06T04:33:32.608Z,16.00
2023-02-06T04:36:00.997Z,15.73
2023-02-06T04:38:30.154Z,13.32
2023-02-06T04:41:05.332Z,11.98
2023-02-06T04:43:33.802Z,15.02
2023-02-06T04:46:02.253Z,18.20
2023-02-06T04:48:30.273Z,10.85
2023-02-06T04:50:58.199Z,15.63
2023-02-06T04:53:27.051Z,14.32
2023-02-06T04:55:56.391Z,12.73
2023-02-06T04:58:26.606Z,16.67
2023-02-06T05:00:54.572Z,16.70
2023-02-06T05:03:23.733Z,11.88
2023-02-06T05:05:52.110Z,12.68
2023-02-06T05:08:20.533Z,14.23
2023-02-06T05:10:48.486Z,17.45
2023-02-06T05:13:17.346Z,14.18
2023-02-06T05:15:46.934Z,22.92
2023-02-06T05:18:18.263Z,17.88
2023-02-06T05:20:46.256Z,23.38
2023-02-06T05:23:14.692Z,19.90
2023-02-06T05:25:44.710Z,23.17
2023-02-06T05:28:13.144Z,21.02
2023-02-06T05:30:41.429Z,15.38
2023-02-06T05:33:11.822Z,17.33
2023-02-06T05:38:08.629Z,19.92
2023-02-06T05:40:37.317Z,11.38
2023-02-06T05:43:05.348Z,13.57
2023-02-06T05:45:35.952Z,17.95
2023-02-06T05:48:04.663Z,15.38
2023-02-06T05:50:34.432Z,22.50
2023-02-06T05:53:02.363Z,12.63
2023-02-06T05:55:30.269Z,12.52
2023-02-06T05:57:59.588Z,13.27
2023-02-06T06:00:27.758Z,14.45
2023-02-06T06:02:56.248Z,12.20
2023-02-06T06:05:24.775Z,14.35
2023-02-06T06:07:54.145Z,12.75
2023-02-06T06:10:22.563Z,12.18
2023-02-06T06:12:50.675Z,13.90
2023-02-06T06:15:18.892Z,10.95
2023-02-06T06:17:46.816Z,14.48
2023-02-06T06:20:15.724Z,16.95
2023-02-06T06:22:43.585Z,12.20
2023-02-06T06:25:13.321Z,12.25
2023-02-06T06:27:41.673Z,13.57
2023-02-06T06:30:11.332Z,13.55
2023-02-06T06:32:39.746Z,11.95
2023-02-06T06:35:08.330Z,10.50
2023-02-06T06:37:36.296Z,12.73
2023-02-06T06:40:04.432Z,15.15
2023-02-06T06:42:34.646Z,11.23
2023-02-06T06:45:02.647Z,15.68
2023-02-06T06:47:31.057Z,17.83
2023-02-06T06:49:59.883Z,16.85
2023-02-06T06:52:27.906Z,14.95
2023-02-06T06:54:56.394Z,22.58
2023-02-06T06:57:25.055Z,21.40
2023-02-06T06:59:54.467Z,16.10
2023-02-06T07:02:22.812Z,11.57
2023-02-06T07:04:51.329Z,14.90
2023-02-06T07:07:19.238Z,13.98
2023-02-06T07:09:47.676Z,15.68
2023-02-06T07:12:15.766Z,16.90
2023-02-06T07:14:43.750Z,12.85
2023-02-06T07:17:13.051Z,18.67
2023-02-06T07:19:43.066Z,17.92
2023-02-06T07:22:11.062Z,18.58
2023-02-06T07:24:38.957Z,15.63
2023-02-06T07:27:07.928Z,16.15
2023-02-06T07:29:35.968Z,15.82
2023-02-06T07:32:05.513Z,15.00
2023-02-06T07:34:35.212Z,15.88
2023-02-06T07:37:04.285Z,16.95
2023-02-06T07:39:32.640Z,17.85
2023-02-06T07:42:00.574Z,18.27
2023-02-06T07:44:34.896Z,14.32
2023-02-06T07:47:02.842Z,13.38
2023-02-06T07:49:30.731Z,23.15
2023-02-06T07:52:00.471Z,19.52
2023-02-06T07:54:28.574Z,17.10
2023-02-06T07:56:57.021Z,15.05
2023-02-06T07:59:24.948Z,17.17
2023-02-06T08:01:53.401Z,20.08
2023-02-06T08:04:21.221Z,18.20
2023-02-06T08:06:49.218Z,20.52
2023-02-06T08:09:18.587Z,21.90
2023-02-06T08:11:50.575Z,20.15
2023-02-06T08:14:18.523Z,22.20
2023-02-06T08:16:46.431Z,18.15
2023-02-06T08:19:15.401Z,17.33
2023-02-06T08:21:43.395Z,16.73
2023-02-06T08:24:13.266Z,19.30
2023-02-06T08:26:44.254Z,23.25
2023-02-06T08:29:15.068Z,24.30
2023-02-06T08:31:45.967Z,20.15
2023-02-06T08:34:15.835Z,18.67
2023-02-06T08:36:44.632Z,27.42
2023-02-06T08:39:14.769Z,23.90
2023-02-06T08:41:45.093Z,21.55
2023-02-06T08:44:16.544Z,21.20
2023-02-06T08:46:46.101Z,31.05
2023-02-06T08:51:44.106Z,27.85
2023-02-06T08:54:13.895Z,23.87
2023-02-06T08:56:42.322Z,22.58
2023-02-06T08:59:13.875Z,28.98
2023-02-06T09:01:42.806Z,24.38
2023-02-06T09:04:12.155Z,24.83
2023-02-06T09:06:43.057Z,28.92
2023-02-06T09:09:13.976Z,27.95
2023-02-06T09:11:42.597Z,30.60
2023-02-06T09:14:16.924Z,29.00
2023-02-06T09:16:45.130Z,26.05
2023-02-06T09:19:13.563Z,24.52
2023-02-06T09:21:44.049Z,24.05
2023-02-06T09:26:58.447Z,25.58
2023-02-06T09:29:32.318Z,22.60
2023-02-06T09:32:00.678Z,28.15
2023-02-06T09:34:28.927Z,19.20
2023-02-06T09:36:58.188Z,20.77
2023-02-06T09:39:26.363Z,24.40
2023-02-06T09:41:59.098Z,25.27
2023-02-06T09:44:32.786Z,27.77
2023-02-06T09:47:08.875Z,26.15
2023-02-06T09:49:40.556Z,27.90
2023-02-06T09:52:35.585Z,27.75
2023-02-06T09:55:12.757Z,20.23
2023-02-06T09:57:47.821Z,29.00
2023-02-06T10:00:32.446Z,27.23
2023-02-06T10:03:27.229Z,23.65
2023-02-06T10:06:05.921Z,17.17
2023-02-06T10:08:40.227Z,23.33
2023-02-06T10:11:13.973Z,21.92
2023-02-06T10:13:50.161Z,21.75
2023-02-06T10:16:33.544Z,19.88
2023-02-06T10:19:06.349Z,20.42
2023-02-06T10:21:38.873Z,21.15
2023-02-06T10:24:12.058Z,21.65
2023-02-06T10:26:41.277Z,23.17
2023-02-06T10:29:21.238Z,27.05
2023-02-06T10:34:40.415Z,20.60
2023-02-06T10:40:04.318Z,22.23
2023-02-06T10:42:44.528Z,20.23
2023-02-06T10:45:20.423Z,16.13
2023-02-06T10:47:55.376Z,19.58
2023-02-06T10:50:29.872Z,20.80
2023-02-06T10:53:02.127Z,19.05
2023-02-06T10:55:36.593Z,21.17
2023-02-06T10:58:14.319Z,25.65
2023-02-06T11:00:47.143Z,25.20
2023-02-06T11:03:20.977Z,24.42
2023-02-06T11:05:50.526Z,22.58
2023-02-06T11:08:23.169Z,23.53
2023-02-06T11:10:53.795Z,19.55
2023-02-06T11:13:27.928Z,21.23
2023-02-06T11:16:02.960Z,20.67
2023-02-06T11:18:36.038Z,24.95
2023-02-06T11:21:07.283Z,20.55
2023-02-06T11:23:35.667Z,25.42
2023-02-06T11:26:26.873Z,21.15
2023-02-06T11:28:56.746Z,25.23
2023-02-06T11:31:43.923Z,23.08
2023-02-06T11:34:24.625Z,23.48
2023-02-06T11:36:55.876Z,21.92
2023-02-06T11:39:31.142Z,21.20
2023-02-06T11:42:03.005Z,21.42
2023-02-06T11:44:39.974Z,21.25
2023-02-06T11:47:23.189Z,22.23
2023-02-06T11:49:52.995Z,20.92
2023-02-06T11:52:32.755Z,19.83
2023-02-06T11:55:02.899Z,22.27
2023-02-06T11:57:34.495Z,17.65
2023-02-06T12:00:19.578Z,18.00
2023-02-06T12:02:52.784Z,20.60
2023-02-06T12:05:25.285Z,24.45
2023-02-06T12:08:00.545Z,20.08
2023-02-06T12:10:31.773Z,19.63
2023-02-06T12:13:08.209Z,18.48
2023-02-06T12:15:47.106Z,21.70
2023-02-06T12:18:20.237Z,22.50
2023-02-06T12:20:53.512Z,26.10
2023-02-06T12:23:27.469Z,25.45
2023-02-06T12:25:57.991Z,22.50
2023-02-06T12:28:32.127Z,23.25
2023-02-06T12:31:04.808Z,23.40
2023-02-06T12:33:41.530Z,27.10
2023-02-06T12:36:16.718Z,20.85
2023-02-06T12:38:50.628Z,19.67
2023-02-06T12:41:42.476Z,22.60
2023-02-06T12:44:24.077Z,28.60
2023-02-06T12:46:58.723Z,24.83
2023-02-06T12:49:31.189Z,19.70
2023-02-06T12:52:06.153Z,21.67
2023-02-06T12:55:04.497Z,20.83
2023-02-06T12:57:35.214Z,26.38
2023-02-06T13:00:22.524Z,25.85
2023-02-06T13:03:07.334Z,20.65
2023-02-06T13:05:38.407Z,19.73
2023-02-06T13:08:11.850Z,22.42
2023-02-06T13:10:40.887Z,25.80
2023-02-06T13:13:27.366Z,18.77
2023-02-06T13:15:57.622Z,26.60
2023-02-06T13:18:53.797Z,18.10
2023-02-06T13:21:28.577Z,20.02
2023-02-06T13:24:19.136Z,22.33
2023-02-06T13:27:12.953Z,21.92
2023-02-06T13:29:43.945Z,20.23
2023-02-06T13:32:45.381Z,24.65
2023-02-06T13:35:28.858Z,22.55
2023-02-06T13:38:28.412Z,17.80
2023-02-06T13:43:48.943Z,25.25
2023-02-06T13:46:21.549Z,20.38
2023-02-06T13:49:10.837Z,24.80
2023-02-06T13:51:51.956Z,20.73
2023-02-06T13:54:45.256Z,24.98
2023-02-06T13:57:29.974Z,18.08
2023-02-06T14:00:03.517Z,17.52
2023-02-06T14:02:38.444Z,20.10
2023-02-06T14:05:14.393Z,24.05
2023-02-06T14:07:55.346Z,18.45
2023-02-06T14:10:56.205Z,25.15
2023-02-06T14:13:37.643Z,16.75
2023-02-06T14:16:19.818Z,17.27
2023-02-06T14:18:54.797Z,19.33
2023-02-06T14:21:35.378Z,18.23
2023-02-06T14:24:19.112Z,20.02
2023-02-06T14:26:58.719Z,17.92
2023-02-06T14:29:37.231Z,12.07
2023-02-06T14:32:23.017Z,17.98
2023-02-06T14:35:04.094Z,10.90
2023-02-06T14:37:58.308Z,17.73
2023-02-06T14:40:28.291Z,12.40
2023-02-06T14:42:59.832Z,20.10
2023-02-06T14:45:38.489Z,11.77
2023-02-06T14:48:21.725Z,16.63
2023-02-06T14:50:54.896Z,15.50
2023-02-06T14:53:28.808Z,16.30
2023-02-06T14:56:08.775Z,15.60
2023-02-06T14:58:38.698Z,12.80
2023-02-06T15:01:21.161Z,12.00
2023-02-06T15:03:53.004Z,10.45
2023-02-06T15:06:33.743Z,13.75
2023-02-06T15:09:02.619Z,11.50
2023-02-06T15:11:32.696Z,14.90
2023-02-06T15:14:03.092Z,17.08
2023-02-06T15:16:33.033Z,18.17
2023-02-06T15:19:14.079Z,12.27
2023-02-06T15:21:44.154Z,15.00
2023-02-06T15:24:31.845Z,14.43
2023-02-06T15:27:06.634Z,14.68
2023-02-06T15:29:39.647Z,16.27
2023-02-06T15:32:17.867Z,15.48
2023-02-06T15:34:48.492Z,18.42
2023-02-06T15:37:24.777Z,14.82
2023-02-06T15:39:54.824Z,18.05
2023-02-06T15:42:23.887Z,14.48
2023-02-06T15:44:53.052Z,14.73
2023-02-06T15:47:22.867Z,14.02
2023-02-06T15:49:53.231Z,13.77
2023-02-06T15:52:37.583Z,12.80
2023-02-06T15:55:06.089Z,12.98
2023-02-06T15:57:36.498Z,14.63
2023-02-06T16:00:10.156Z,12.38
2023-02-06T16:02:41.772Z,20.70
2023-02-06T16:05:24.465Z,17.98
2023-02-06T16:07:52.694Z,19.58
2023-02-06T16:10:28.205Z,15.88
2023-02-06T16:12:57.574Z,13.00
2023-02-06T16:15:30.694Z,15.23
2023-02-06T16:18:00.761Z,16.38
2023-02-06T16:20:40.184Z,16.42
2023-02-06T16:23:24.595Z,17.05
2023-02-06T16:26:03.629Z,13.80
2023-02-06T16:28:32.031Z,17.50
2023-02-06T16:31:04.967Z,11.88
2023-02-06T16:33:37.477Z,14.32
2023-02-06T16:36:08.628Z,14.18
2023-02-06T16:38:36.618Z,13.60
2023-02-06T16:41:04.875Z,14.20
2023-02-06T16:43:33.738Z,15.80
2023-02-06T16:46:02.252Z,13.27
2023-02-06T16:48:30.919Z,21.40
2023-02-06T16:51:00.824Z,15.32
2023-02-06T16:55:58.780Z,14.88
2023-02-06T16:58:28.911Z,16.02
2023-02-06T17:00:57.411Z,14.50
2023-02-06T17:03:25.420Z,15.95
2023-02-06T17:05:54.686Z,12.57
2023-02-06T17:08:25.356Z,13.57
2023-02-06T17:10:55.567Z,14.75
2023-02-06T17:13:25.086Z,14.75
2023-02-06T17:18:23.559Z,17.88
2023-02-06T17:20:52.901Z,13.40
2023-02-06T17:23:21.382Z,14.07
2023-02-06T17:25:51.298Z,15.98
2023-02-06T17:28:21.620Z,13.77
2023-02-06T17:30:51.375Z,17.40
2023-02-06T17:33:19.395Z,13.07
2023-02-06T17:35:48.968Z,15.07
2023-02-06T17:38:17.965Z,14.67
2023-02-06T17:40:46.089Z,18.90
2023-02-06T17:43:14.040Z,16.15
2023-02-06T17:45:44.364Z,16.95
2023-02-06T17:50:41.864Z,12.00
2023-02-06T17:55:45.107Z,18.50
2023-02-06T17:58:14.086Z,18.13
2023-02-06T18:00:43.455Z,14.40
2023-02-06T18:03:11.361Z,16.52
2023-02-06T18:05:40.183Z,14.70
2023-02-06T18:08:08.087Z,14.23
2023-02-06T18:10:36.949Z,14.52
2023-02-06T18:13:05.409Z,16.42
2023-02-06T18:15:33.393Z,12.90
2023-02-06T18:18:05.191Z,13.68
2023-02-06T18:20:33.408Z,11.20
2023-02-06T18:23:01.289Z,12.52
2023-02-06T18:25:30.159Z,12.98
2023-02-06T18:27:58.064Z,14.13
2023-02-06T18:30:26.435Z,13.13
2023-02-06T18:32:54.841Z,12.27
2023-02-06T18:35:24.511Z,15.18
2023-02-06T18:40:21.642Z,14.50
2023-02-06T18:42:51.279Z,19.00
2023-02-06T18:45:19.995Z,16.83
2023-02-06T18:47:48.941Z,16.38
2023-02-06T18:50:18.702Z,13.85
2023-02-06T18:52:48.584Z,15.68
2023-02-06T18:57:44.345Z,20.52
2023-02-06T19:00:16.009Z,17.42
2023-02-06T19:02:44.065Z,19.60
2023-02-06T19:05:12.222Z,14.65
2023-02-06T19:07:40.626Z,20.42
2023-02-06T19:10:12.989Z,13.75
2023-02-06T19:12:41.926Z,22.13
2023-02-06T19:15:11.148Z,19.17
2023-02-06T19:17:40.105Z,19.17
2023-02-06T19:20:10.059Z,20.33
2023-02-06T19:22:39.559Z,17.85
2023-02-06T19:25:14.478Z,22.13
2023-02-06T19:27:44.081Z,22.02
2023-02-06T19:30:14.106Z,19.08
2023-02-06T19:32:43.826Z,21.27
2023-02-06T19:35:12.037Z,18.63
2023-02-06T19:37:40.464Z,21.02
2023-02-06T19:40:09.217Z,19.23
2023-02-06T19:42:40.126Z,19.02
2023-02-06T19:45:08.536Z,18.83
2023-02-06T19:47:36.948Z,15.50
2023-02-06T19:50:05.780Z,22.75
2023-02-06T19:52:35.194Z,20.40
2023-02-06T19:57:32.021Z,17.70
2023-02-06T20:00:01.769Z,17.02
2023-02-06T20:02:33.631Z,13.75
2023-02-06T20:05:02.810Z,20.67
2023-02-06T20:07:31.866Z,18.73
2023-02-06T20:10:00.548Z,15.73
2023-02-06T20:12:29.122Z,16.02
2023-02-06T20:14:57.212Z,14.05
2023-02-06T20:17:27.924Z,18.67
2023-02-06T20:19:59.165Z,15.40
2023-02-06T20:22:28.167Z,16.52
2023-02-06T20:24:56.092Z,14.68
2023-02-06T20:27:24.610Z,19.08
2023-02-06T20:29:52.973Z,16.45
2023-02-06T20:32:20.938Z,20.92
2023-02-06T20:34:50.340Z,17.45
2023-02-06T20:39:47.293Z,17.33
2023-02-06T20:42:16.136Z,19.45
2023-02-06T20:44:44.467Z,20.35
2023-02-06T20:47:14.270Z,17.33
2023-02-06T20:49:42.858Z,19.25
2023-02-06T20:52:13.355Z,23.45
2023-02-06T20:54:41.616Z,28.38
2023-02-06T20:57:10.050Z,20.15
2023-02-06T20:59:38.418Z,15.93
2023-02-06T21:02:06.435Z,14.93
2023-02-06T21:04:34.614Z,16.77
2023-02-06T21:07:03.755Z,14.48
2023-02-06T21:09:33.118Z,17.13
2023-02-06T21:12:01.322Z,23.40
2023-02-06T21:14:30.727Z,18.52
2023-02-06T21:16:59.003Z,16.90
2023-02-06T21:19:29.162Z,12.95
2023-02-06T21:21:58.526Z,17.10
2023-02-06T21:24:26.619Z,17.23
2023-02-06T21:26:56.539Z,20.13
2023-02-06T21:29:24.967Z,15.00
2023-02-06T21:32:07.267Z,24.17
2023-02-06T21:34:41.002Z,23.45
2023-02-06T21:37:09.332Z,18.67
2023-02-06T21:39:39.298Z,21.80
2023-02-06T21:42:09.188Z,16.77
2023-02-06T21:44:37.972Z,20.42
2023-02-06T21:47:06.564Z,19.58
2023-02-06T21:49:34.809Z,22.25
2023-02-06T21:52:02.735Z,19.02
2023-02-06T21:54:32.262Z,21.85
2023-02-06T21:57:00.240Z,19.52
2023-02-06T21:59:33.158Z,18.27
2023-02-06T22:02:01.245Z,19.48
2023-02-06T22:04:29.289Z,18.00
2023-02-06T22:06:58.278Z,18.52
2023-02-06T22:09:26.247Z,19.23
2023-02-06T22:11:54.274Z,18.00
2023-02-06T22:14:22.911Z,18.00
2023-02-06T22:16:52.422Z,16.63
2023-02-06T22:19:20.485Z,14.40
2023-02-06T22:21:51.151Z,18.13
2023-02-06T22:24:19.209Z,13.77
2023-02-06T22:26:49.229Z,12.30
2023-02-06T22:29:19.255Z,11.90
2023-02-06T22:31:48.481Z,15.65
2023-02-06T22:36:47.885Z,15.38
2023-02-06T22:39:16.577Z,21.97
2023-02-06T22:41:46.278Z,19.67
2023-02-06T22:44:17.698Z,21.13
2023-02-06T22:46:48.358Z,15.88
2023-02-06T22:49:19.337Z,17.95
2023-02-06T22:51:47.757Z,17.85
2023-02-06T22:54:16.302Z,16.65
2023-02-06T22:56:46.394Z,16.33
2023-02-06T22:59:17.276Z,15.57
2023-02-06T23:01:48.275Z,19.48
2023-02-06T23:04:20.198Z,18.73
2023-02-06T23:06:49.140Z,14.30
2023-02-06T23:09:20.543Z,14.68
2023-02-06T23:11:48.980Z,14.60
2023-02-06T23:14:18.658Z,13.20
2023-02-06T23:16:48.241Z,16.48
2023-02-06T23:19:16.897Z,12.55
2023-02-06T23:21:48.088Z,18.77
2023-02-06T23:24:17.289Z,12.40
2023-02-06T23:26:47.340Z,14.90
2023-02-06T23:29:19.296Z,14.32
2023-02-06T23:31:48.460Z,23.42
2023-02-06T23:34:18.800Z,16.23
2023-02-06T23:39:17.304Z,13.88
2023-02-06T23:41:45.432Z,14.93
2023-02-06T23:44:13.813Z,15.98
2023-02-06T23:46:42.346Z,19.95
2023-02-06T23:49:11.688Z,16.20
2023-02-06T23:51:39.656Z,22.65
2023-02-06T23:54:10.134Z,15.05
2023-02-06T23:56:39.126Z,20.15
2023-02-06T23:59:07.590Z,16.57
